sensor_id;sensor_type;location;lat;lon;timestamp;P1;durP1;ratioP1;P2;durP2;ratioP2
43807;SDS011;29438;50.664;10.098;2023-07-13T00:01:28;1.80;;;0.63;;
43807;SDS011;29438;50.664;10.098;2023-07-13T00:03:54;2.50;;;0.80;;
43807;SDS011;29438;50.664;10.098;2023-07-13T00:06:21;2.55;;;0.73;;
43807;SDS011;29438;50.664;10.098;2023-07-13T00:08:46;1.38;;;0.70;;
43807;SDS011;29438;50.664;10.098;2023-07-13T00:11:13;2.45;;;0.85;;
43807;SDS011;29438;50.664;10.098;2023-07-13T00:13:40;2.28;;;0.57;;
43807;SDS011;29438;50.664;10.098;2023-07-13T00:16:07;3.53;;;0.80;;
43807;SDS011;29438;50.664;10.098;2023-07-13T00:18:34;2.00;;;0.90;;
43807;SDS011;29438;50.664;10.098;2023-07-13T00:20:59;2.08;;;0.80;;
43807;SDS011;29438;50.664;10.098;2023-07-13T00:23:30;2.17;;;0.98;;
43807;SDS011;29438;50.664;10.098;2023-07-13T00:25:59;2.20;;;0.80;;
43807;SDS011;29438;50.664;10.098;2023-07-13T00:28:26;3.75;;;1.02;;
43807;SDS011;29438;50.664;10.098;2023-07-13T00:30:52;2.13;;;0.70;;
43807;SDS011;29438;50.664;10.098;2023-07-13T00:33:17;3.53;;;0.80;;
43807;SDS011;29438;50.664;10.098;2023-07-13T00:35:43;2.60;;;0.80;;
43807;SDS011;29438;50.664;10.098;2023-07-13T00:38:09;3.55;;;0.90;;
43807;SDS011;29438;50.664;10.098;2023-07-13T00:40:35;1.70;;;0.88;;
43807;SDS011;29438;50.664;10.098;2023-07-13T00:43:00;1.83;;;0.80;;
43807;SDS011;29438;50.664;10.098;2023-07-13T00:47:51;3.40;;;0.80;;
43807;SDS011;29438;50.664;10.098;2023-07-13T00:50:17;1.88;;;0.70;;
43807;SDS011;29438;50.664;10.098;2023-07-13T00:52:45;2.65;;;0.90;;
43807;SDS011;29438;50.664;10.098;2023-07-13T00:55:13;1.17;;;0.60;;
43807;SDS011;29438;50.664;10.098;2023-07-13T00:57:39;1.40;;;0.70;;
43807;SDS011;29438;50.664;10.098;2023-07-13T01:00:07;2.60;;;1.00;;
43807;SDS011;29438;50.664;10.098;2023-07-13T01:02:33;4.07;;;0.90;;
43807;SDS011;29438;50.664;10.098;2023-07-13T01:05:08;2.00;;;0.73;;
43807;SDS011;29438;50.664;10.098;2023-07-13T01:07:39;1.80;;;0.80;;
43807;SDS011;29438;50.664;10.098;2023-07-13T01:10:06;2.58;;;0.90;;
43807;SDS011;29438;50.664;10.098;2023-07-13T01:12:32;5.13;;;1.08;;
43807;SDS011;29438;50.664;10.098;2023-07-13T01:14:59;2.10;;;0.70;;
43807;SDS011;29438;50.664;10.098;2023-07-13T01:17:26;4.32;;;1.23;;
43807;SDS011;29438;50.664;10.098;2023-07-13T01:19:53;3.13;;;0.80;;
43807;SDS011;29438;50.664;10.098;2023-07-13T01:22:20;3.58;;;0.95;;
43807;SDS011;29438;50.664;10.098;2023-07-13T01:24:51;1.83;;;0.82;;
43807;SDS011;29438;50.664;10.098;2023-07-13T01:27:22;1.80;;;0.88;;
43807;SDS011;29438;50.664;10.098;2023-07-13T01:29:50;2.50;;;0.95;;
43807;SDS011;29438;50.664;10.098;2023-07-13T01:32:18;2.08;;;0.90;;
43807;SDS011;29438;50.664;10.098;2023-07-13T01:34:48;2.95;;;0.73;;
43807;SDS011;29438;50.664;10.098;2023-07-13T01:37:14;3.13;;;1.00;;
43807;SDS011;29438;50.664;10.098;2023-07-13T01:39:40;2.65;;;0.98;;
43807;SDS011;29438;50.664;10.098;2023-07-13T01:42:06;1.33;;;0.80;;
43807;SDS011;29438;50.664;10.098;2023-07-13T01:44:31;2.03;;;0.70;;
43807;SDS011;29438;50.664;10.098;2023-07-13T01:46:57;2.50;;;0.85;;
43807;SDS011;29438;50.664;10.098;2023-07-13T01:49:23;2.88;;;0.80;;
43807;SDS011;29438;50.664;10.098;2023-07-13T01:51:48;1.58;;;0.90;;
43807;SDS011;29438;50.664;10.098;2023-07-13T01:54:14;1.67;;;0.80;;
43807;SDS011;29438;50.664;10.098;2023-07-13T01:56:39;2.95;;;0.90;;
43807;SDS011;29438;50.664;10.098;2023-07-13T01:59:06;7.20;;;1.00;;
43807;SDS011;29438;50.664;10.098;2023-07-13T02:01:32;2.50;;;0.82;;
43807;SDS011;29438;50.664;10.098;2023-07-13T02:03:58;2.22;;;1.00;;
43807;SDS011;29438;50.664;10.098;2023-07-13T02:06:23;2.25;;;0.80;;
43807;SDS011;29438;50.664;10.098;2023-07-13T02:08:49;2.58;;;0.85;;
43807;SDS011;29438;50.664;10.098;2023-07-13T02:11:14;3.28;;;0.95;;
43807;SDS011;29438;50.664;10.098;2023-07-13T02:13:40;2.88;;;0.88;;
43807;SDS011;29438;50.664;10.098;2023-07-13T02:16:05;1.52;;;0.77;;
43807;SDS011;29438;50.664;10.098;2023-07-13T02:18:31;2.88;;;0.93;;
43807;SDS011;29438;50.664;10.098;2023-07-13T02:20:57;2.65;;;0.90;;
43807;SDS011;29438;50.664;10.098;2023-07-13T02:23:23;2.13;;;0.80;;
43807;SDS011;29438;50.664;10.098;2023-07-13T02:25:48;2.67;;;0.90;;
43807;SDS011;29438;50.664;10.098;2023-07-13T02:28:14;2.28;;;0.90;;
43807;SDS011;29438;50.664;10.098;2023-07-13T02:30:39;2.60;;;0.80;;
43807;SDS011;29438;50.664;10.098;2023-07-13T02:33:05;2.75;;;0.80;;
43807;SDS011;29438;50.664;10.098;2023-07-13T02:35:31;2.08;;;0.90;;
43807;SDS011;29438;50.664;10.098;2023-07-13T02:37:56;2.75;;;1.10;;
43807;SDS011;29438;50.664;10.098;2023-07-13T02:40:22;1.98;;;0.98;;
43807;SDS011;29438;50.664;10.098;2023-07-13T02:42:48;1.90;;;0.88;;
43807;SDS011;29438;50.664;10.098;2023-07-13T02:45:13;3.38;;;1.05;;
43807;SDS011;29438;50.664;10.098;2023-07-13T02:47:40;1.95;;;1.05;;
43807;SDS011;29438;50.664;10.098;2023-07-13T02:50:07;2.83;;;1.10;;
43807;SDS011;29438;50.664;10.098;2023-07-13T02:52:33;3.47;;;1.13;;
43807;SDS011;29438;50.664;10.098;2023-07-13T02:54:58;4.60;;;0.98;;
43807;SDS011;29438;50.664;10.098;2023-07-13T02:57:24;1.85;;;1.00;;
43807;SDS011;29438;50.664;10.098;2023-07-13T02:59:50;2.83;;;1.00;;
43807;SDS011;29438;50.664;10.098;2023-07-13T03:02:15;1.98;;;1.08;;
43807;SDS011;29438;50.664;10.098;2023-07-13T03:04:41;2.15;;;1.10;;
43807;SDS011;29438;50.664;10.098;2023-07-13T03:07:07;1.90;;;0.70;;
43807;SDS011;29438;50.664;10.098;2023-07-13T03:09:33;1.70;;;0.93;;
43807;SDS011;29438;50.664;10.098;2023-07-13T03:11:59;2.58;;;1.27;;
43807;SDS011;29438;50.664;10.098;2023-07-13T03:14:25;4.93;;;1.17;;
43807;SDS011;29438;50.664;10.098;2023-07-13T03:16:51;2.85;;;1.00;;
43807;SDS011;29438;50.664;10.098;2023-07-13T03:19:17;2.90;;;1.08;;
43807;SDS011;29438;50.664;10.098;2023-07-13T03:21:43;2.03;;;0.90;;
43807;SDS011;29438;50.664;10.098;2023-07-13T03:24:09;2.10;;;0.93;;
43807;SDS011;29438;50.664;10.098;2023-07-13T03:26:34;3.25;;;1.10;;
43807;SDS011;29438;50.664;10.098;2023-07-13T03:29:00;2.67;;;1.20;;
43807;SDS011;29438;50.664;10.098;2023-07-13T03:31:26;2.78;;;1.13;;
43807;SDS011;29438;50.664;10.098;2023-07-13T03:33:55;3.15;;;1.38;;
43807;SDS011;29438;50.664;10.098;2023-07-13T03:36:23;2.40;;;1.00;;
43807;SDS011;29438;50.664;10.098;2023-07-13T03:38:52;2.45;;;1.30;;
43807;SDS011;29438;50.664;10.098;2023-07-13T03:41:20;2.00;;;1.02;;
43807;SDS011;29438;50.664;10.098;2023-07-13T03:43:47;2.47;;;1.20;;
43807;SDS011;29438;50.664;10.098;2023-07-13T03:46:13;2.05;;;1.00;;
43807;SDS011;29438;50.664;10.098;2023-07-13T03:48:40;3.33;;;1.17;;
43807;SDS011;29438;50.664;10.098;2023-07-13T03:51:07;3.30;;;0.93;;
43807;SDS011;29438;50.664;10.098;2023-07-13T03:53:34;2.45;;;1.05;;
43807;SDS011;29438;50.664;10.098;2023-07-13T03:56:03;2.78;;;1.05;;
43807;SDS011;29438;50.664;10.098;2023-07-13T03:58:34;2.15;;;0.90;;
43807;SDS011;29438;50.664;10.098;2023-07-13T04:01:01;1.92;;;0.90;;
43807;SDS011;29438;50.664;10.098;2023-07-13T04:03:28;1.67;;;0.90;;
43807;SDS011;29438;50.664;10.098;2023-07-13T04:05:57;6.25;;;0.82;;
43807;SDS011;29438;50.664;10.098;2023-07-13T04:08:25;1.83;;;0.80;;
43807;SDS011;29438;50.664;10.098;2023-07-13T04:10:51;2.13;;;0.82;;
43807;SDS011;29438;50.664;10.098;2023-07-13T04:13:17;3.85;;;0.88;;
43807;SDS011;29438;50.664;10.098;2023-07-13T04:15:42;2.67;;;0.70;;
43807;SDS011;29438;50.664;10.098;2023-07-13T04:18:08;2.45;;;1.05;;
43807;SDS011;29438;50.664;10.098;2023-07-13T04:20:33;2.75;;;0.57;;
43807;SDS011;29438;50.664;10.098;2023-07-13T04:22:59;4.60;;;0.80;;
43807;SDS011;29438;50.664;10.098;2023-07-13T04:25:25;2.88;;;0.75;;
43807;SDS011;29438;50.664;10.098;2023-07-13T04:27:51;3.28;;;0.90;;
43807;SDS011;29438;50.664;10.098;2023-07-13T04:30:17;3.53;;;0.75;;
43807;SDS011;29438;50.664;10.098;2023-07-13T04:32:43;2.63;;;0.70;;
43807;SDS011;29438;50.664;10.098;2023-07-13T04:35:08;4.03;;;0.73;;
43807;SDS011;29438;50.664;10.098;2023-07-13T04:37:34;1.02;;;0.50;;
43807;SDS011;29438;50.664;10.098;2023-07-13T04:40:00;1.60;;;0.50;;
43807;SDS011;29438;50.664;10.098;2023-07-13T04:42:26;2.08;;;0.60;;
43807;SDS011;29438;50.664;10.098;2023-07-13T04:44:51;1.95;;;0.40;;
43807;SDS011;29438;50.664;10.098;2023-07-13T04:47:17;1.70;;;0.55;;
43807;SDS011;29438;50.664;10.098;2023-07-13T04:49:44;1.33;;;0.50;;
43807;SDS011;29438;50.664;10.098;2023-07-13T04:52:10;1.52;;;0.55;;
43807;SDS011;29438;50.664;10.098;2023-07-13T04:54:36;2.83;;;0.40;;
43807;SDS011;29438;50.664;10.098;2023-07-13T04:57:02;2.03;;;0.50;;
43807;SDS011;29438;50.664;10.098;2023-07-13T04:59:31;1.83;;;0.43;;
43807;SDS011;29438;50.664;10.098;2023-07-13T05:01:57;1.40;;;0.40;;
43807;SDS011;29438;50.664;10.098;2023-07-13T05:04:22;1.38;;;0.50;;
43807;SDS011;29438;50.664;10.098;2023-07-13T05:06:48;2.25;;;0.70;;
43807;SDS011;29438;50.664;10.098;2023-07-13T05:09:13;2.03;;;0.57;;
43807;SDS011;29438;50.664;10.098;2023-07-13T05:11:39;3.80;;;0.60;;
43807;SDS011;29438;50.664;10.098;2023-07-13T05:14:04;1.55;;;0.43;;
43807;SDS011;29438;50.664;10.098;2023-07-13T05:16:30;2.75;;;0.70;;
43807;SDS011;29438;50.664;10.098;2023-07-13T05:18:57;2.15;;;0.60;;
43807;SDS011;29438;50.664;10.098;2023-07-13T05:21:22;1.95;;;0.60;;
43807;SDS011;29438;50.664;10.098;2023-07-13T05:23:48;2.30;;;0.60;;
43807;SDS011;29438;50.664;10.098;2023-07-13T05:26:15;3.13;;;0.60;;
43807;SDS011;29438;50.664;10.098;2023-07-13T05:28:40;1.58;;;0.50;;
43807;SDS011;29438;50.664;10.098;2023-07-13T05:31:07;1.90;;;0.40;;
43807;SDS011;29438;50.664;10.098;2023-07-13T05:33:34;2.38;;;0.50;;
43807;SDS011;29438;50.664;10.098;2023-07-13T05:36:00;4.07;;;0.57;;
43807;SDS011;29438;50.664;10.098;2023-07-13T05:38:26;2.92;;;0.57;;
43807;SDS011;29438;50.664;10.098;2023-07-13T05:40:53;2.83;;;0.47;;
43807;SDS011;29438;50.664;10.098;2023-07-13T05:43:19;1.42;;;0.40;;
43807;SDS011;29438;50.664;10.098;2023-07-13T05:45:44;3.25;;;0.50;;
43807;SDS011;29438;50.664;10.098;2023-07-13T05:48:10;1.60;;;0.40;;
43807;SDS011;29438;50.664;10.098;2023-07-13T05:50:35;2.60;;;0.40;;
43807;SDS011;29438;50.664;10.098;2023-07-13T05:53:01;2.72;;;0.40;;
43807;SDS011;29438;50.664;10.098;2023-07-13T05:55:27;1.95;;;0.40;;
43807;SDS011;29438;50.664;10.098;2023-07-13T05:57:52;1.60;;;0.40;;
43807;SDS011;29438;50.664;10.098;2023-07-13T06:00:19;3.40;;;0.55;;
43807;SDS011;29438;50.664;10.098;2023-07-13T06:02:45;2.08;;;0.30;;
43807;SDS011;29438;50.664;10.098;2023-07-13T06:05:10;2.95;;;0.50;;
43807;SDS011;29438;50.664;10.098;2023-07-13T06:07:36;1.23;;;0.30;;
43807;SDS011;29438;50.664;10.098;2023-07-13T06:10:02;2.05;;;0.25;;
43807;SDS011;29438;50.664;10.098;2023-07-13T06:12:28;1.83;;;0.40;;
43807;SDS011;29438;50.664;10.098;2023-07-13T06:14:53;2.45;;;0.40;;
43807;SDS011;29438;50.664;10.098;2023-07-13T06:17:19;1.92;;;0.30;;
43807;SDS011;29438;50.664;10.098;2023-07-13T06:19:44;2.22;;;0.30;;
43807;SDS011;29438;50.664;10.098;2023-07-13T06:22:10;1.10;;;0.20;;
43807;SDS011;29438;50.664;10.098;2023-07-13T06:24:36;0.82;;;0.30;;
43807;SDS011;29438;50.664;10.098;2023-07-13T06:27:01;1.08;;;0.20;;
43807;SDS011;29438;50.664;10.098;2023-07-13T06:29:27;2.20;;;0.38;;
43807;SDS011;29438;50.664;10.098;2023-07-13T06:31:53;1.38;;;0.30;;
43807;SDS011;29438;50.664;10.098;2023-07-13T06:34:18;1.27;;;0.35;;
43807;SDS011;29438;50.664;10.098;2023-07-13T06:36:44;2.10;;;0.40;;
43807;SDS011;29438;50.664;10.098;2023-07-13T06:39:09;1.75;;;0.20;;
43807;SDS011;29438;50.664;10.098;2023-07-13T06:41:35;1.13;;;0.20;;
43807;SDS011;29438;50.664;10.098;2023-07-13T06:44:00;1.67;;;0.30;;
43807;SDS011;29438;50.664;10.098;2023-07-13T06:46:28;1.83;;;0.20;;
43807;SDS011;29438;50.664;10.098;2023-07-13T06:48:54;1.40;;;0.20;;
43807;SDS011;29438;50.664;10.098;2023-07-13T06:51:20;1.60;;;0.20;;
43807;SDS011;29438;50.664;10.098;2023-07-13T06:53:46;1.85;;;0.20;;
43807;SDS011;29438;50.664;10.098;2023-07-13T06:56:11;1.35;;;0.25;;
43807;SDS011;29438;50.664;10.098;2023-07-13T06:58:37;2.50;;;0.28;;
43807;SDS011;29438;50.664;10.098;2023-07-13T07:01:03;2.15;;;0.20;;
43807;SDS011;29438;50.664;10.098;2023-07-13T07:03:29;1.65;;;0.20;;
43807;SDS011;29438;50.664;10.098;2023-07-13T07:06:03;1.95;;;0.30;;
43807;SDS011;29438;50.664;10.098;2023-07-13T07:08:37;3.25;;;0.25;;
43807;SDS011;29438;50.664;10.098;2023-07-13T07:11:02;1.25;;;0.20;;
43807;SDS011;29438;50.664;10.098;2023-07-13T07:13:28;3.40;;;0.20;;
43807;SDS011;29438;50.664;10.098;2023-07-13T07:15:54;0.95;;;0.13;;
43807;SDS011;29438;50.664;10.098;2023-07-13T07:18:20;2.00;;;0.25;;
43807;SDS011;29438;50.664;10.098;2023-07-13T07:20:45;1.42;;;0.13;;
43807;SDS011;29438;50.664;10.098;2023-07-13T07:23:11;0.55;;;0.10;;
43807;SDS011;29438;50.664;10.098;2023-07-13T07:25:36;1.17;;;0.20;;
43807;SDS011;29438;50.664;10.098;2023-07-13T07:28:06;2.05;;;0.20;;
43807;SDS011;29438;50.664;10.098;2023-07-13T07:30:33;2.08;;;0.25;;
43807;SDS011;29438;50.664;10.098;2023-07-13T07:32:58;1.58;;;0.28;;
43807;SDS011;29438;50.664;10.098;2023-07-13T07:35:23;1.30;;;0.17;;
43807;SDS011;29438;50.664;10.098;2023-07-13T07:37:49;3.05;;;0.20;;
43807;SDS011;29438;50.664;10.098;2023-07-13T07:40:15;0.93;;;0.10;;
43807;SDS011;29438;50.664;10.098;2023-07-13T07:42:40;1.20;;;0.10;;
43807;SDS011;29438;50.664;10.098;2023-07-13T07:45:06;1.55;;;0.20;;
43807;SDS011;29438;50.664;10.098;2023-07-13T07:47:42;2.40;;;0.20;;
43807;SDS011;29438;50.664;10.098;2023-07-13T07:50:08;0.88;;;0.20;;
43807;SDS011;29438;50.664;10.098;2023-07-13T07:52:34;2.75;;;0.20;;
43807;SDS011;29438;50.664;10.098;2023-07-13T07:54:59;1.27;;;0.10;;
43807;SDS011;29438;50.664;10.098;2023-07-13T07:57:25;1.13;;;0.13;;
43807;SDS011;29438;50.664;10.098;2023-07-13T07:59:51;1.30;;;0.10;;
43807;SDS011;29438;50.664;10.098;2023-07-13T08:02:16;1.25;;;0.10;;
43807;SDS011;29438;50.664;10.098;2023-07-13T08:04:42;0.55;;;0.00;;
43807;SDS011;29438;50.664;10.098;2023-07-13T08:07:08;1.13;;;0.10;;
43807;SDS011;29438;50.664;10.098;2023-07-13T08:09:34;0.82;;;0.10;;
43807;SDS011;29438;50.664;10.098;2023-07-13T08:12:00;1.55;;;0.15;;
43807;SDS011;29438;50.664;10.098;2023-07-13T08:14:25;1.42;;;0.10;;
43807;SDS011;29438;50.664;10.098;2023-07-13T08:16:51;2.17;;;0.10;;
43807;SDS011;29438;50.664;10.098;2023-07-13T08:19:16;1.20;;;0.10;;
43807;SDS011;29438;50.664;10.098;2023-07-13T08:21:42;2.13;;;0.10;;
43807;SDS011;29438;50.664;10.098;2023-07-13T08:24:08;1.25;;;0.10;;
43807;SDS011;29438;50.664;10.098;2023-07-13T08:26:34;1.05;;;0.13;;
43807;SDS011;29438;50.664;10.098;2023-07-13T08:29:00;1.42;;;0.08;;
43807;SDS011;29438;50.664;10.098;2023-07-13T08:31:25;1.08;;;0.10;;
43807;SDS011;29438;50.664;10.098;2023-07-13T08:33:51;1.08;;;0.10;;
43807;SDS011;29438;50.664;10.098;2023-07-13T08:36:16;1.35;;;0.10;;
43807;SDS011;29438;50.664;10.098;2023-07-13T08:38:42;1.02;;;0.00;;
43807;SDS011;29438;50.664;10.098;2023-07-13T08:41:12;2.15;;;0.10;;
43807;SDS011;29438;50.664;10.098;2023-07-13T08:43:39;0.63;;;0.00;;
43807;SDS011;29438;50.664;10.098;2023-07-13T08:46:18;0.45;;;0.10;;
43807;SDS011;29438;50.664;10.098;2023-07-13T08:48:54;1.15;;;0.10;;
43807;SDS011;29438;50.664;10.098;2023-07-13T08:51:34;0.65;;;0.10;;
43807;SDS011;29438;50.664;10.098;2023-07-13T08:54:10;1.05;;;0.00;;
43807;SDS011;29438;50.664;10.098;2023-07-13T08:56:44;0.90;;;0.10;;
43807;SDS011;29438;50.664;10.098;2023-07-13T08:59:13;0.82;;;0.10;;
43807;SDS011;29438;50.664;10.098;2023-07-13T09:04:26;0.77;;;0.00;;
43807;SDS011;29438;50.664;10.098;2023-07-13T09:07:13;0.40;;;0.00;;
43807;SDS011;29438;50.664;10.098;2023-07-13T09:09:50;1.20;;;0.10;;
43807;SDS011;29438;50.664;10.098;2023-07-13T09:12:27;1.63;;;0.00;;
43807;SDS011;29438;50.664;10.098;2023-07-13T09:15:03;1.30;;;0.00;;
43807;SDS011;29438;50.664;10.098;2023-07-13T09:17:41;0.85;;;0.10;;
43807;SDS011;29438;50.664;10.098;2023-07-13T09:22:46;1.25;;;0.10;;
43807;SDS011;29438;50.664;10.098;2023-07-13T09:27:55;0.95;;;0.00;;
43807;SDS011;29438;50.664;10.098;2023-07-13T09:33:12;1.13;;;0.10;;
43807;SDS011;29438;50.664;10.098;2023-07-13T09:35:39;1.77;;;0.10;;
43807;SDS011;29438;50.664;10.098;2023-07-13T09:40:48;0.52;;;0.10;;
43807;SDS011;29438;50.664;10.098;2023-07-13T09:44:00;0.90;;;0.00;;
43807;SDS011;29438;50.664;10.098;2023-07-13T09:46:27;2.08;;;0.25;;
43807;SDS011;29438;50.664;10.098;2023-07-13T09:48:52;1.77;;;0.10;;
43807;SDS011;29438;50.664;10.098;2023-07-13T09:51:20;1.45;;;0.10;;
43807;SDS011;29438;50.664;10.098;2023-07-13T09:53:46;0.93;;;0.10;;
43807;SDS011;29438;50.664;10.098;2023-07-13T09:58:47;0.50;;;0.10;;
43807;SDS011;29438;50.664;10.098;2023-07-13T10:01:13;0.90;;;0.10;;
43807;SDS011;29438;50.664;10.098;2023-07-13T10:03:39;0.93;;;0.10;;
43807;SDS011;29438;50.664;10.098;2023-07-13T10:06:17;1.10;;;0.10;;
43807;SDS011;29438;50.664;10.098;2023-07-13T10:08:45;1.38;;;0.32;;
43807;SDS011;29438;50.664;10.098;2023-07-13T10:11:21;1.45;;;0.20;;
43807;SDS011;29438;50.664;10.098;2023-07-13T10:16:25;0.63;;;0.10;;
43807;SDS011;29438;50.664;10.098;2023-07-13T10:18:58;0.55;;;0.00;;
43807;SDS011;29438;50.664;10.098;2023-07-13T10:21:27;0.47;;;0.00;;
43807;SDS011;29438;50.664;10.098;2023-07-13T10:24:00;0.45;;;0.10;;
43807;SDS011;29438;50.664;10.098;2023-07-13T10:26:42;1.17;;;0.20;;
43807;SDS011;29438;50.664;10.098;2023-07-13T10:29:23;2.47;;;0.10;;
43807;SDS011;29438;50.664;10.098;2023-07-13T10:31:51;1.20;;;0.20;;
43807;SDS011;29438;50.664;10.098;2023-07-13T10:34:17;0.80;;;0.10;;
43807;SDS011;29438;50.664;10.098;2023-07-13T10:36:44;1.27;;;0.17;;
43807;SDS011;29438;50.664;10.098;2023-07-13T10:39:16;1.08;;;0.45;;
43807;SDS011;29438;50.664;10.098;2023-07-13T10:42:06;2.20;;;0.40;;
43807;SDS011;29438;50.664;10.098;2023-07-13T10:44:37;1.15;;;0.20;;
43807;SDS011;29438;50.664;10.098;2023-07-13T10:47:15;1.10;;;0.28;;
43807;SDS011;29438;50.664;10.098;2023-07-13T10:49:43;1.73;;;0.20;;
43807;SDS011;29438;50.664;10.098;2023-07-13T11:01:17;0.60;;;0.10;;
43807;SDS011;29438;50.664;10.098;2023-07-13T11:13:56;1.80;;;0.10;;
43807;SDS011;29438;50.664;10.098;2023-07-13T11:16:46;1.42;;;0.10;;
43807;SDS011;29438;50.664;10.098;2023-07-13T11:22:01;0.30;;;0.00;;
43807;SDS011;29438;50.664;10.098;2023-07-13T11:24:57;0.08;;;0.00;;
43807;SDS011;29438;50.664;10.098;2023-07-13T11:30:35;1.15;;;0.10;;
43807;SDS011;29438;50.664;10.098;2023-07-13T11:38:41;0.50;;;0.10;;
43807;SDS011;29438;50.664;10.098;2023-07-13T11:41:15;0.43;;;0.00;;
43807;SDS011;29438;50.664;10.098;2023-07-13T11:44:01;0.73;;;0.10;;
43807;SDS011;29438;50.664;10.098;2023-07-13T11:46:36;0.22;;;0.08;;
43807;SDS011;29438;50.664;10.098;2023-07-13T11:49:04;0.10;;;0.00;;
43807;SDS011;29438;50.664;10.098;2023-07-13T11:51:32;1.10;;;0.10;;
43807;SDS011;29438;50.664;10.098;2023-07-13T11:54:04;0.57;;;0.10;;
43807;SDS011;29438;50.664;10.098;2023-07-13T11:56:32;1.15;;;0.10;;
43807;SDS011;29438;50.664;10.098;2023-07-13T11:59:02;0.40;;;0.10;;
43807;SDS011;29438;50.664;10.098;2023-07-13T12:01:31;0.95;;;0.10;;
43807;SDS011;29438;50.664;10.098;2023-07-13T12:04:01;0.50;;;0.00;;
43807;SDS011;29438;50.664;10.098;2023-07-13T12:06:29;0.40;;;0.00;;
43807;SDS011;29438;50.664;10.098;2023-07-13T12:08:57;1.85;;;0.00;;
43807;SDS011;29438;50.664;10.098;2023-07-13T12:11:28;0.28;;;0.00;;
43807;SDS011;29438;50.664;10.098;2023-07-13T12:13:55;0.50;;;0.10;;
43807;SDS011;29438;50.664;10.098;2023-07-13T12:16:24;0.68;;;0.10;;
43807;SDS011;29438;50.664;10.098;2023-07-13T12:18:53;0.63;;;0.10;;
43807;SDS011;29438;50.664;10.098;2023-07-13T12:21:21;0.60;;;0.00;;
43807;SDS011;29438;50.664;10.098;2023-07-13T12:23:51;1.05;;;0.10;;
43807;SDS011;29438;50.664;10.098;2023-07-13T12:26:17;0.52;;;0.10;;
43807;SDS011;29438;50.664;10.098;2023-07-13T12:31:25;0.30;;;0.10;;
43807;SDS011;29438;50.664;10.098;2023-07-13T12:33:59;0.52;;;0.00;;
43807;SDS011;29438;50.664;10.098;2023-07-13T12:36:33;0.60;;;0.10;;
43807;SDS011;29438;50.664;10.098;2023-07-13T12:39:02;0.85;;;0.03;;
43807;SDS011;29438;50.664;10.098;2023-07-13T12:41:36;0.82;;;0.10;;
43807;SDS011;29438;50.664;10.098;2023-07-13T12:44:01;0.50;;;0.10;;
43807;SDS011;29438;50.664;10.098;2023-07-13T12:46:27;0.52;;;0.10;;
43807;SDS011;29438;50.664;10.098;2023-07-13T12:48:54;0.43;;;0.10;;
43807;SDS011;29438;50.664;10.098;2023-07-13T12:51:26;0.82;;;0.00;;
43807;SDS011;29438;50.664;10.098;2023-07-13T12:53:57;0.57;;;0.00;;
43807;SDS011;29438;50.664;10.098;2023-07-13T12:56:44;1.23;;;0.10;;
43807;SDS011;29438;50.664;10.098;2023-07-13T12:59:16;0.77;;;0.20;;
43807;SDS011;29438;50.664;10.098;2023-07-13T13:01:45;1.10;;;0.13;;
43807;SDS011;29438;50.664;10.098;2023-07-13T13:04:12;0.50;;;0.10;;
43807;SDS011;29438;50.664;10.098;2023-07-13T13:06:38;0.65;;;0.10;;
43807;SDS011;29438;50.664;10.098;2023-07-13T13:09:05;1.48;;;0.10;;
43807;SDS011;29438;50.664;10.098;2023-07-13T13:11:36;0.65;;;0.00;;
43807;SDS011;29438;50.664;10.098;2023-07-13T13:14:02;0.75;;;0.00;;
43807;SDS011;29438;50.664;10.098;2023-07-13T13:16:29;0.50;;;0.00;;
43807;SDS011;29438;50.664;10.098;2023-07-13T13:19:15;1.20;;;0.10;;
43807;SDS011;29438;50.664;10.098;2023-07-13T13:21:44;0.77;;;0.10;;
43807;SDS011;29438;50.664;10.098;2023-07-13T13:24:11;0.82;;;0.10;;
43807;SDS011;29438;50.664;10.098;2023-07-13T13:26:38;0.60;;;0.08;;
43807;SDS011;29438;50.664;10.098;2023-07-13T13:29:15;0.65;;;0.10;;
43807;SDS011;29438;50.664;10.098;2023-07-13T13:31:43;1.38;;;0.10;;
43807;SDS011;29438;50.664;10.098;2023-07-13T13:34:09;0.60;;;0.10;;
43807;SDS011;29438;50.664;10.098;2023-07-13T13:36:36;0.75;;;0.10;;
43807;SDS011;29438;50.664;10.098;2023-07-13T13:39:02;2.17;;;0.10;;
43807;SDS011;29438;50.664;10.098;2023-07-13T13:41:31;0.45;;;0.08;;
43807;SDS011;29438;50.664;10.098;2023-07-13T13:43:57;0.20;;;0.00;;
43807;SDS011;29438;50.664;10.098;2023-07-13T13:46:23;0.82;;;0.10;;
43807;SDS011;29438;50.664;10.098;2023-07-13T13:48:55;1.08;;;0.10;;
43807;SDS011;29438;50.664;10.098;2023-07-13T13:51:22;0.77;;;0.20;;
43807;SDS011;29438;50.664;10.098;2023-07-13T13:53:49;0.88;;;0.15;;
43807;SDS011;29438;50.664;10.098;2023-07-13T13:56:15;0.45;;;0.10;;
43807;SDS011;29438;50.664;10.098;2023-07-13T13:58:43;0.80;;;0.10;;
43807;SDS011;29438;50.664;10.098;2023-07-13T14:01:27;1.35;;;0.20;;
43807;SDS011;29438;50.664;10.098;2023-07-13T14:03:54;1.67;;;0.20;;
43807;SDS011;29438;50.664;10.098;2023-07-13T14:06:19;2.80;;;0.20;;
43807;SDS011;29438;50.664;10.098;2023-07-13T14:08:45;0.60;;;0.13;;
43807;SDS011;29438;50.664;10.098;2023-07-13T14:11:16;0.80;;;0.17;;
43807;SDS011;29438;50.664;10.098;2023-07-13T14:13:44;1.30;;;0.20;;
43807;SDS011;29438;50.664;10.098;2023-07-13T14:16:17;0.77;;;0.20;;
43807;SDS011;29438;50.664;10.098;2023-07-13T14:18:45;0.65;;;0.10;;
43807;SDS011;29438;50.664;10.098;2023-07-13T14:21:15;1.08;;;0.10;;
43807;SDS011;29438;50.664;10.098;2023-07-13T14:23:43;1.20;;;0.20;;
43807;SDS011;29438;50.664;10.098;2023-07-13T14:26:11;0.70;;;0.20;;
43807;SDS011;29438;50.664;10.098;2023-07-13T14:28:41;0.77;;;0.10;;
43807;SDS011;29438;50.664;10.098;2023-07-13T14:31:09;0.90;;;0.13;;
43807;SDS011;29438;50.664;10.098;2023-07-13T14:33:35;1.27;;;0.20;;
43807;SDS011;29438;50.664;10.098;2023-07-13T14:36:02;2.42;;;0.10;;
43807;SDS011;29438;50.664;10.098;2023-07-13T14:38:28;1.15;;;0.22;;
43807;SDS011;29438;50.664;10.098;2023-07-13T14:40:54;0.95;;;0.15;;
43807;SDS011;29438;50.664;10.098;2023-07-13T14:43:19;1.20;;;0.10;;
43807;SDS011;29438;50.664;10.098;2023-07-13T14:45:48;1.92;;;0.20;;
43807;SDS011;29438;50.664;10.098;2023-07-13T14:48:16;1.35;;;0.20;;
43807;SDS011;29438;50.664;10.098;2023-07-13T14:50:50;1.70;;;0.10;;
43807;SDS011;29438;50.664;10.098;2023-07-13T14:53:21;1.45;;;0.20;;
43807;SDS011;29438;50.664;10.098;2023-07-13T14:55:47;1.67;;;0.15;;
43807;SDS011;29438;50.664;10.098;2023-07-13T14:58:13;0.77;;;0.20;;
43807;SDS011;29438;50.664;10.098;2023-07-13T15:00:39;0.43;;;0.10;;
43807;SDS011;29438;50.664;10.098;2023-07-13T15:03:05;0.65;;;0.20;;
43807;SDS011;29438;50.664;10.098;2023-07-13T15:05:38;1.73;;;0.20;;
43807;SDS011;29438;50.664;10.098;2023-07-13T15:08:05;1.17;;;0.20;;
43807;SDS011;29438;50.664;10.098;2023-07-13T15:10:31;1.17;;;0.20;;
43807;SDS011;29438;50.664;10.098;2023-07-13T15:13:00;2.55;;;0.30;;
43807;SDS011;29438;50.664;10.098;2023-07-13T15:15:37;0.60;;;0.20;;
43807;SDS011;29438;50.664;10.098;2023-07-13T15:18:09;0.82;;;0.20;;
43807;SDS011;29438;50.664;10.098;2023-07-13T15:20:36;0.57;;;0.20;;
43807;SDS011;29438;50.664;10.098;2023-07-13T15:23:03;1.58;;;0.20;;
43807;SDS011;29438;50.664;10.098;2023-07-13T15:25:30;1.10;;;0.20;;
43807;SDS011;29438;50.664;10.098;2023-07-13T15:27:58;1.05;;;0.20;;
43807;SDS011;29438;50.664;10.098;2023-07-13T15:30:33;1.27;;;0.30;;
43807;SDS011;29438;50.664;10.098;2023-07-13T15:33:09;1.50;;;0.20;;